Aurora, CO (80010)

6:58 PM MDT on August 24, 2016 (GMT -0600)
stapleton bluff lake | | Change Station

Elev 5348 ft 39.76 °N, 104.86 °W | Updated 0 second ago

Mostly Cloudy
Mostly Cloudy
63.8 °F
Feels Like 63.8 °F
N
0.0
Wind Variable Wind from ESE
Gusts 0.0 mph

Today
High -- | Low -- °F
--% Chance of Precip.
Yesterday
High -- | Low -- °F
Precip. -- in
Pressure 30.06 in
Visibility 10.0 miles
Clouds Few 7000 ft
Scattered Clouds 12000 ft
Mostly Cloudy 22000 ft
Dew Point 49 °F
Humidity 60%
Rainfall 0.18 in
Snow Depth Not available.
6:20 AM 7:42 PM
Waning Gibbous, 51% visible
METAR KBKF 242358Z 18008KT 10SM FEW070 SCT120 BKN220 18/09 A3023 RMK AO2A SLP178 60003 T01830085 10183 20141 55015
Pressure 30.06 in
Visibility 10.0 miles
Clouds Few 7000 ft
Scattered Clouds 12000 ft
Mostly Cloudy 22000 ft
Dew Point 49 °F
Humidity 60%
Rainfall 0.18 in
Snow Depth Not available.
6:20 AM 7:42 PM
Waning Gibbous, 51% visible
METAR KBKF 242358Z 18008KT 10SM FEW070 SCT120 BKN220 18/09 A3023 RMK AO2A SLP178 60003 T01830085 10183 20141 55015

10-Day Weather Forecast

Almanac

Astronomy

Aug. 24, 2016 Rise Set
Actual Time
Civil Twilight
Nautical Twilight
Astronomical Twilight
Moon
Length of Visible Light
Length of Day
Tomorrow will be .
, % of the Moon is Illuminated

Today's Extremes

State Highs State Lows

Community

WunderPhotos

Upload Photos

1,934,748 photos uploaded!

WunderBlog® & News

Nearby

Air Quality

  Air Quality AQ Index Pollutant
Not available.

Snow Depth

Station Depth Elevation

Earthquake Activity

City Distance Mag. Time & Date
Minimum magnitude displayed is 2.5.

Coastal Water Temperatures

Place Temperature

Stations

Nearby Weather Stations

Station Location Temp. Windchill Dew Point Humidity Wind Precip. Elev Updated Type
                   

Watches & Warnings

There are currently no watches in effect.